createdAt,value
2022-10-12T00:01:45.310Z,11.50
2022-10-12T00:04:33.607Z,10.95
2022-10-12T00:07:24.359Z,11.35
2022-10-12T00:10:12.333Z,12.88
2022-10-12T00:13:00.943Z,13.20
2022-10-12T00:15:49.167Z,12.20
2022-10-12T00:18:38.083Z,15.90
2022-10-12T00:21:30.143Z,11.32
2022-10-12T00:24:18.060Z,10.38
2022-10-12T00:27:05.875Z,15.07
2022-10-12T00:29:53.728Z,12.20
2022-10-12T00:32:42.029Z,14.25
2022-10-12T00:35:29.931Z,18.48
2022-10-12T00:38:17.818Z,11.63
2022-10-12T00:41:06.024Z,15.25
2022-10-12T00:43:58.173Z,16.67
2022-10-12T00:46:49.740Z,21.27
2022-10-12T00:49:37.913Z,12.93
2022-10-12T00:52:54.321Z,13.23
2022-10-12T00:55:51.526Z,9.32
2022-10-12T00:58:39.545Z,12.55
2022-10-12T01:01:28.200Z,13.80
2022-10-12T01:04:16.308Z,10.38
2022-10-12T01:07:04.267Z,17.08
2022-10-12T01:09:52.705Z,12.52
2022-10-12T01:12:43.317Z,9.02
2022-10-12T01:16:09.063Z,11.38
2022-10-12T01:19:30.093Z,12.25
2022-10-12T01:22:20.744Z,11.02
2022-10-12T01:25:34.729Z,11.57
2022-10-12T01:28:49.166Z,10.30
2022-10-12T01:31:46.530Z,12.57
2022-10-12T01:35:22.706Z,12.82
2022-10-12T01:38:54.428Z,13.80
2022-10-12T01:41:58.649Z,10.35
2022-10-12T01:44:46.633Z,12.02
2022-10-12T01:47:35.796Z,10.48
2022-10-12T01:50:37.471Z,12.57
2022-10-12T01:53:46.233Z,14.00
2022-10-12T01:56:58.055Z,10.88
2022-10-12T02:00:08.141Z,14.60
2022-10-12T02:03:21.817Z,13.00
2022-10-12T02:06:18.707Z,18.35
2022-10-12T02:09:26.420Z,12.20
2022-10-12T02:12:22.505Z,13.23
2022-10-12T02:15:12.047Z,19.15
2022-10-12T02:18:03.455Z,17.60
2022-10-12T02:20:53.991Z,14.63
2022-10-12T02:23:43.733Z,12.07
2022-10-12T02:26:34.703Z,15.60
2022-10-12T02:29:29.017Z,13.00
2022-10-12T02:32:54.846Z,15.65
2022-10-12T02:36:01.868Z,13.18
2022-10-12T02:39:03.102Z,24.63
2022-10-12T02:41:54.930Z,15.50
2022-10-12T02:44:43.728Z,15.70
2022-10-12T02:47:33.177Z,16.13
2022-10-12T02:50:22.960Z,14.38
2022-10-12T02:53:12.620Z,14.00
2022-10-12T02:56:12.589Z,13.75
2022-10-12T02:59:00.645Z,15.90
2022-10-12T03:01:48.686Z,16.17
2022-10-12T03:04:37.446Z,12.55
2022-10-12T03:07:25.436Z,14.75
2022-10-12T03:10:15.106Z,10.13
2022-10-12T03:13:03.532Z,14.95
2022-10-12T03:15:53.807Z,20.33
2022-10-12T03:18:41.689Z,9.18
2022-10-12T03:21:39.890Z,17.52
2022-10-12T03:24:27.916Z,16.95
2022-10-12T03:27:15.900Z,13.50
2022-10-12T03:30:04.183Z,13.73
2022-10-12T03:32:52.036Z,15.88
2022-10-12T03:35:44.588Z,14.27
2022-10-12T03:38:32.407Z,18.13
2022-10-12T03:41:20.294Z,21.45
2022-10-12T03:44:08.277Z,15.98
2022-10-12T03:46:59.276Z,10.95
2022-10-12T03:49:47.232Z,12.95
2022-10-12T03:52:35.034Z,31.48
2022-10-12T03:55:23.745Z,16.85
2022-10-12T03:58:12.650Z,17.25
2022-10-12T04:01:00.589Z,16.90
2022-10-12T04:03:48.631Z,15.45
2022-10-12T04:06:36.451Z,13.27
2022-10-12T04:09:24.480Z,15.20
2022-10-12T04:12:12.344Z,17.50
2022-10-12T04:15:00.255Z,18.85
2022-10-12T04:17:48.282Z,22.67
2022-10-12T04:20:36.115Z,18.30
2022-10-12T04:23:24.015Z,16.15
2022-10-12T04:26:11.930Z,21.55
2022-10-12T04:28:59.841Z,18.27
2022-10-12T04:31:47.638Z,16.92
2022-10-12T04:34:36.740Z,14.57
2022-10-12T04:37:26.977Z,15.77
2022-10-12T04:40:14.805Z,21.33
2022-10-12T04:43:02.631Z,24.13
2022-10-12T04:45:58.886Z,24.23
2022-10-12T04:48:46.897Z,19.02
2022-10-12T04:51:34.802Z,20.25
2022-10-12T04:54:22.638Z,21.25
2022-10-12T04:57:13.111Z,18.70
2022-10-12T05:00:00.993Z,21.70
2022-10-12T05:02:48.996Z,18.08
2022-10-12T05:05:37.044Z,18.98
2022-10-12T05:08:24.987Z,22.08
2022-10-12T05:11:13.039Z,15.13
2022-10-12T05:14:00.871Z,16.42
2022-10-12T05:16:48.819Z,20.60
2022-10-12T05:19:36.620Z,16.52
2022-10-12T05:22:24.412Z,16.13
2022-10-12T05:25:12.552Z,17.88
2022-10-12T05:28:00.420Z,17.90
2022-10-12T05:30:52.998Z,18.83
2022-10-12T05:33:43.960Z,19.38
2022-10-12T05:36:35.653Z,19.55
2022-10-12T05:39:28.515Z,19.85
2022-10-12T05:42:24.592Z,25.13
2022-10-12T05:45:16.265Z,22.52
2022-10-12T05:48:10.547Z,20.58
2022-10-12T05:51:04.609Z,23.27
2022-10-12T05:57:16.129Z,23.02
2022-10-12T06:00:09.157Z,17.70
2022-10-12T06:03:09.563Z,22.95
2022-10-12T06:05:58.296Z,23.63
2022-10-12T06:08:53.117Z,19.13
2022-10-12T06:11:58.635Z,17.20
2022-10-12T06:14:53.072Z,16.33
2022-10-12T06:17:54.466Z,18.77
2022-10-12T06:21:21.055Z,18.02
2022-10-12T06:25:14.866Z,16.35
2022-10-12T06:28:55.202Z,18.73
2022-10-12T06:32:06.538Z,15.32
2022-10-12T06:35:22.337Z,14.60
2022-10-12T06:38:37.484Z,14.77
2022-10-12T06:45:34.057Z,14.75
2022-10-12T06:48:36.271Z,14.50
2022-10-12T06:52:15.052Z,12.43
2022-10-12T06:56:14.125Z,16.63
2022-10-12T07:00:18.776Z,15.30
2022-10-12T07:02:57.821Z,18.27
2022-10-12T07:06:02.208Z,13.85
2022-10-12T07:12:25.071Z,19.92
2022-10-12T07:20:11.016Z,15.23
2022-10-12T07:25:41.453Z,25.27
2022-10-12T07:28:30.127Z,18.65
2022-10-12T07:31:45.652Z,12.75
2022-10-12T07:38:45.429Z,10.50
2022-10-12T07:41:33.993Z,12.10
2022-10-12T07:44:28.428Z,13.05
2022-10-12T07:47:18.126Z,12.55
2022-10-12T07:50:07.184Z,10.85
2022-10-12T07:52:55.334Z,9.13
2022-10-12T07:55:49.314Z,11.23
2022-10-12T07:58:53.412Z,9.82
2022-10-12T08:01:52.896Z,12.63
2022-10-12T08:07:56.158Z,10.95
2022-10-12T08:10:45.123Z,15.77
2022-10-12T08:13:45.907Z,12.65
2022-10-12T08:16:34.365Z,10.77
2022-10-12T08:19:33.019Z,11.27
2022-10-12T08:22:29.935Z,12.80
2022-10-12T08:25:27.246Z,11.25
2022-10-12T08:28:29.988Z,13.60
2022-10-12T08:42:17.850Z,9.38
2022-10-12T08:45:38.609Z,9.48
2022-10-12T08:48:59.212Z,11.40
2022-10-12T08:53:17.550Z,9.93
2022-10-12T08:56:11.749Z,13.23
2022-10-12T08:59:39.913Z,13.70
2022-10-12T09:02:55.233Z,11.30
2022-10-12T09:06:32.844Z,10.32
2022-10-12T09:10:32.672Z,7.57
2022-10-12T09:13:51.884Z,11.80
2022-10-12T09:16:55.419Z,11.07
2022-10-12T09:19:53.100Z,6.63
2022-10-12T09:23:17.460Z,11.35
2022-10-12T09:26:21.912Z,9.00
2022-10-12T09:34:36.488Z,11.75
2022-10-12T09:37:10.983Z,8.93
2022-10-12T09:40:31.603Z,8.60
2022-10-12T09:48:18.746Z,9.80
2022-10-12T09:51:17.796Z,10.35
2022-10-12T09:55:09.723Z,12.27
2022-10-12T09:58:32.218Z,9.45
2022-10-12T10:02:06.336Z,7.57
2022-10-12T10:06:14.852Z,10.48
2022-10-12T10:10:00.642Z,11.18
2022-10-12T10:13:09.677Z,12.75
2022-10-12T10:17:05.667Z,12.55
2022-10-12T10:24:57.537Z,14.77
2022-10-12T10:29:14.416Z,15.02
2022-10-12T10:38:07.180Z,11.48
2022-10-12T10:45:23.213Z,11.50
2022-10-12T10:55:51.342Z,14.13
2022-10-12T10:59:09.760Z,16.35
2022-10-12T11:02:37.685Z,16.25
2022-10-12T11:18:30.978Z,10.82
2022-10-12T11:26:10.619Z,11.98
2022-10-12T11:29:11.397Z,18.65
2022-10-12T11:32:41.863Z,12.68
2022-10-12T11:35:45.665Z,12.10
2022-10-12T12:00:45.963Z,12.13
2022-10-12T12:04:48.927Z,11.15
2022-10-12T12:07:43.038Z,14.70
2022-10-12T12:15:15.989Z,12.65
2022-10-12T12:18:39.461Z,12.07
2022-10-12T12:31:05.791Z,13.05
2022-10-12T12:35:00.304Z,12.55
2022-10-12T12:48:57.086Z,14.30
2022-10-12T13:01:45.450Z,17.10
2022-10-12T13:49:01.287Z,17.45
2022-10-12T13:52:14.148Z,16.25
2022-10-12T13:59:23.923Z,16.50
2022-10-12T14:03:43.363Z,15.02
2022-10-12T14:14:40.425Z,14.15
2022-10-12T14:17:37.381Z,16.77
2022-10-12T14:21:32.176Z,17.30
2022-10-12T14:24:24.953Z,17.35
2022-10-12T14:27:24.717Z,18.35
2022-10-12T14:30:39.252Z,19.30
2022-10-12T14:33:35.515Z,25.38
2022-10-12T14:36:26.330Z,20.45
2022-10-12T14:39:14.924Z,20.73
2022-10-12T14:42:36.533Z,19.05
2022-10-12T14:45:26.058Z,20.75
2022-10-12T14:48:25.152Z,21.45
2022-10-12T14:51:18.403Z,22.58
2022-10-12T14:54:06.836Z,18.93
2022-10-12T14:56:55.229Z,19.80
2022-10-12T14:59:43.568Z,21.45
2022-10-12T15:02:33.268Z,19.38
2022-10-12T15:05:23.989Z,19.13
2022-10-12T15:08:12.074Z,19.73
2022-10-12T15:11:06.057Z,20.63
2022-10-12T15:13:54.552Z,18.40
2022-10-12T15:16:45.409Z,15.80
2022-10-12T15:19:38.442Z,20.13
2022-10-12T15:22:27.841Z,20.77
2022-10-12T15:25:33.184Z,22.05
2022-10-12T15:28:24.599Z,20.23
2022-10-12T15:31:18.396Z,18.92
2022-10-12T15:34:13.944Z,16.48
2022-10-12T15:37:06.490Z,22.30
2022-10-12T15:39:58.381Z,24.13
2022-10-12T15:42:50.791Z,21.48
2022-10-12T15:45:41.074Z,20.98
2022-10-12T15:48:29.760Z,23.25
2022-10-12T15:51:25.501Z,22.35
2022-10-12T15:54:17.336Z,20.80
2022-10-12T15:57:07.795Z,21.00
2022-10-12T16:00:08.802Z,21.00
2022-10-12T16:03:04.020Z,22.40
2022-10-12T16:05:52.476Z,24.70
2022-10-12T16:08:40.746Z,30.20
2022-10-12T16:11:29.046Z,23.50
2022-10-12T16:14:17.421Z,28.85
2022-10-12T16:17:05.918Z,26.95
2022-10-12T16:20:02.925Z,21.88
2022-10-12T16:22:56.200Z,19.45
2022-10-12T16:31:20.643Z,20.83
2022-10-12T16:34:11.634Z,24.23
2022-10-12T16:37:01.131Z,25.48
2022-10-12T16:39:52.698Z,21.88
2022-10-12T16:42:41.157Z,26.67
2022-10-12T16:45:29.518Z,22.35
2022-10-12T16:48:17.748Z,26.63
2022-10-12T16:51:11.313Z,33.20
2022-10-12T16:53:59.695Z,31.17
2022-10-12T16:56:47.758Z,27.77
2022-10-12T16:59:35.832Z,23.92
2022-10-12T17:02:23.728Z,27.13
2022-10-12T17:05:11.660Z,24.77
2022-10-12T17:08:00.018Z,22.13
2022-10-12T17:10:47.870Z,32.20
2022-10-12T17:13:42.228Z,32.92
2022-10-12T17:16:50.883Z,26.05
2022-10-12T17:19:41.006Z,24.70
2022-10-12T17:22:29.055Z,27.25
2022-10-12T17:25:17.147Z,28.73
2022-10-12T17:28:05.350Z,30.80
2022-10-12T17:30:53.439Z,32.08
2022-10-12T17:33:41.381Z,32.75
2022-10-12T17:36:29.334Z,30.63
2022-10-12T17:39:18.433Z,26.65
2022-10-12T17:42:06.822Z,32.50
2022-10-12T17:44:54.683Z,38.30
2022-10-12T17:47:42.608Z,34.70
2022-10-12T17:50:30.522Z,37.05
2022-10-12T17:53:18.421Z,36.55
2022-10-12T17:56:09.334Z,42.33
2022-10-12T17:59:01.110Z,45.03
2022-10-12T18:01:50.397Z,39.45
2022-10-12T18:04:38.545Z,31.77
2022-10-12T18:07:26.606Z,37.78
2022-10-12T18:10:14.669Z,39.83
2022-10-12T18:13:02.675Z,37.50
2022-10-12T18:15:50.569Z,32.13
2022-10-12T18:18:39.282Z,31.42
2022-10-12T18:21:30.073Z,33.83
2022-10-12T18:24:18.136Z,33.55
2022-10-12T18:27:07.014Z,35.80
2022-10-12T18:29:56.262Z,40.50
2022-10-12T18:32:44.418Z,39.65
2022-10-12T18:35:38.095Z,34.08
2022-10-12T18:38:33.956Z,32.00
2022-10-12T18:41:28.001Z,33.25
2022-10-12T18:44:15.971Z,35.55
2022-10-12T18:47:06.818Z,34.60
2022-10-12T18:49:54.674Z,40.35
2022-10-12T18:52:50.728Z,36.33
2022-10-12T18:55:39.158Z,41.85
2022-10-12T18:58:27.105Z,34.95
2022-10-12T19:01:21.999Z,31.40
2022-10-12T19:04:10.148Z,36.47
2022-10-12T19:06:58.070Z,35.80
2022-10-12T19:09:45.893Z,41.22
2022-10-12T19:12:36.207Z,36.65
2022-10-12T19:15:26.196Z,39.13
2022-10-12T19:18:14.063Z,42.17
2022-10-12T19:21:12.574Z,39.72
2022-10-12T19:24:05.864Z,31.48
2022-10-12T19:26:54.106Z,35.78
2022-10-12T19:29:45.647Z,39.53
2022-10-12T19:32:37.225Z,39.90
2022-10-12T19:35:28.774Z,37.67
2022-10-12T19:38:16.948Z,41.78
2022-10-12T19:41:05.251Z,45.45
2022-10-12T19:43:53.937Z,40.88
2022-10-12T19:46:42.876Z,38.50
2022-10-12T19:49:36.962Z,39.35
2022-10-12T19:52:29.976Z,42.08
2022-10-12T19:55:18.844Z,38.78
2022-10-12T19:58:09.061Z,41.25
2022-10-12T20:01:14.639Z,41.97
2022-10-12T20:04:07.261Z,35.63
2022-10-12T20:06:57.330Z,48.80
2022-10-12T20:09:45.269Z,43.10
2022-10-12T20:12:34.122Z,37.20
2022-10-12T20:15:22.062Z,43.90
2022-10-12T20:18:10.400Z,40.90
2022-10-12T20:20:58.730Z,42.90
2022-10-12T20:23:47.554Z,42.58
2022-10-12T20:26:35.498Z,41.90
2022-10-12T20:29:23.425Z,40.75
2022-10-12T20:32:11.484Z,39.75
2022-10-12T20:34:59.497Z,43.67
2022-10-12T20:37:47.428Z,42.72
2022-10-12T20:40:38.408Z,40.63
2022-10-12T20:43:26.358Z,42.75
2022-10-12T20:46:17.487Z,39.88
2022-10-12T20:49:05.508Z,41.22
2022-10-12T20:52:02.482Z,40.00
2022-10-12T20:55:00.930Z,39.10
2022-10-12T20:57:54.690Z,40.97
2022-10-12T21:00:43.103Z,42.70
2022-10-12T21:03:37.242Z,44.88
2022-10-12T21:06:33.083Z,44.55
2022-10-12T21:09:21.333Z,46.00
2022-10-12T21:12:09.718Z,41.35
2022-10-12T21:14:57.630Z,40.60
2022-10-12T21:17:46.904Z,43.72
2022-10-12T21:20:37.371Z,40.28
2022-10-12T21:23:27.046Z,41.85
2022-10-12T21:26:17.975Z,39.55
2022-10-12T21:29:06.791Z,40.20
2022-10-12T21:31:55.110Z,38.40
2022-10-12T21:34:43.134Z,40.22
2022-10-12T21:37:31.270Z,39.55
2022-10-12T21:40:19.188Z,39.70
2022-10-12T21:43:07.239Z,35.67
2022-10-12T21:45:55.311Z,37.15
2022-10-12T21:48:43.289Z,37.00
2022-10-12T21:51:34.445Z,43.65
2022-10-12T21:54:22.382Z,36.85
2022-10-12T21:57:10.574Z,40.72
2022-10-12T21:59:58.549Z,37.40
2022-10-12T22:02:46.897Z,42.55
2022-10-12T22:05:42.274Z,53.28
2022-10-12T22:08:30.271Z,47.10
2022-10-12T22:11:18.887Z,36.63
2022-10-12T22:14:09.688Z,40.60
2022-10-12T22:16:57.634Z,46.67
2022-10-12T22:19:45.539Z,40.78
2022-10-12T22:22:33.760Z,43.70
2022-10-12T22:25:21.775Z,36.28
2022-10-12T22:28:09.992Z,39.30
2022-10-12T22:30:57.824Z,38.83
2022-10-12T22:33:46.219Z,38.55
2022-10-12T22:36:34.259Z,38.72
2022-10-12T22:39:22.343Z,44.83
2022-10-12T22:42:10.286Z,36.22
2022-10-12T22:44:58.129Z,41.38
2022-10-12T22:47:46.252Z,42.78
2022-10-12T22:50:34.299Z,37.70
2022-10-12T22:53:24.995Z,49.17
2022-10-12T22:56:18.626Z,52.97
2022-10-12T22:59:07.224Z,50.63
2022-10-12T23:01:55.236Z,47.72
2022-10-12T23:04:43.609Z,50.08
2022-10-12T23:07:31.578Z,50.90
2022-10-12T23:10:20.065Z,42.53
2022-10-12T23:13:08.213Z,56.08
2022-10-12T23:15:56.109Z,46.97
2022-10-12T23:18:44.375Z,57.05
2022-10-12T23:21:34.878Z,44.50
2022-10-12T23:24:22.826Z,50.47
2022-10-12T23:27:10.659Z,43.05
2022-10-12T23:29:58.599Z,39.80
2022-10-12T23:32:46.706Z,39.85
2022-10-12T23:35:34.626Z,43.83
2022-10-12T23:38:22.594Z,47.42
2022-10-12T23:41:11.931Z,42.13
2022-10-12T23:43:59.782Z,30.58
2022-10-12T23:46:47.814Z,35.83
2022-10-12T23:49:35.671Z,37.67
2022-10-12T23:52:23.662Z,43.65
2022-10-12T23:55:11.547Z,40.72
2022-10-12T23:57:59.457Z,38.30
